sensor_id;sensor_type;location;lat;lon;timestamp;P1;durP1;ratioP1;P2;durP2;ratioP2
41861;SDS011;27537;57.134;-2.136;2023-09-07T00:01:33;13.23;;;8.35;;
41861;SDS011;27537;57.134;-2.136;2023-09-07T00:04:00;15.80;;;9.02;;
41861;SDS011;27537;57.134;-2.136;2023-09-07T00:06:30;13.57;;;9.18;;
41861;SDS011;27537;57.134;-2.136;2023-09-07T00:08:56;15.00;;;7.15;;
41861;SDS011;27537;57.134;-2.136;2023-09-07T00:11:23;12.00;;;7.60;;
41861;SDS011;27537;57.134;-2.136;2023-09-07T00:13:50;12.70;;;6.70;;
41861;SDS011;27537;57.134;-2.136;2023-09-07T00:16:17;13.20;;;7.32;;
41861;SDS011;27537;57.134;-2.136;2023-09-07T00:18:44;13.75;;;6.78;;
41861;SDS011;27537;57.134;-2.136;2023-09-07T00:21:11;11.02;;;6.30;;
41861;SDS011;27537;57.134;-2.136;2023-09-07T00:23:39;10.73;;;5.97;;
41861;SDS011;27537;57.134;-2.136;2023-09-07T00:26:06;11.77;;;5.70;;
41861;SDS011;27537;57.134;-2.136;2023-09-07T00:28:33;13.15;;;6.53;;
41861;SDS011;27537;57.134;-2.136;2023-09-07T00:31:00;11.05;;;6.22;;
41861;SDS011;27537;57.134;-2.136;2023-09-07T00:33:27;11.05;;;6.63;;
41861;SDS011;27537;57.134;-2.136;2023-09-07T00:35:54;11.25;;;6.68;;
41861;SDS011;27537;57.134;-2.136;2023-09-07T00:38:20;14.43;;;7.05;;
41861;SDS011;27537;57.134;-2.136;2023-09-07T00:40:47;11.98;;;7.05;;
41861;SDS011;27537;57.134;-2.136;2023-09-07T00:43:14;13.02;;;6.68;;
41861;SDS011;27537;57.134;-2.136;2023-09-07T00:45:41;11.25;;;6.65;;
41861;SDS011;27537;57.134;-2.136;2023-09-07T00:48:07;11.60;;;5.55;;
41861;SDS011;27537;57.134;-2.136;2023-09-07T00:50:34;13.65;;;6.70;;
41861;SDS011;27537;57.134;-2.136;2023-09-07T00:53:01;10.55;;;6.40;;
41861;SDS011;27537;57.134;-2.136;2023-09-07T00:55:29;11.93;;;6.00;;
41861;SDS011;27537;57.134;-2.136;2023-09-07T00:57:59;12.18;;;6.53;;
41861;SDS011;27537;57.134;-2.136;2023-09-07T01:00:27;10.15;;;5.20;;
41861;SDS011;27537;57.134;-2.136;2023-09-07T01:02:54;9.88;;;4.80;;
41861;SDS011;27537;57.134;-2.136;2023-09-07T01:05:24;10.63;;;5.53;;
41861;SDS011;27537;57.134;-2.136;2023-09-07T01:08:00;9.88;;;5.80;;
41861;SDS011;27537;57.134;-2.136;2023-09-07T01:10:38;11.63;;;6.45;;
41861;SDS011;27537;57.134;-2.136;2023-09-07T01:13:04;10.57;;;5.57;;
41861;SDS011;27537;57.134;-2.136;2023-09-07T01:15:31;10.57;;;5.63;;
41861;SDS011;27537;57.134;-2.136;2023-09-07T01:17:58;11.00;;;5.57;;
41861;SDS011;27537;57.134;-2.136;2023-09-07T01:20:46;9.52;;;4.97;;
41861;SDS011;27537;57.134;-2.136;2023-09-07T01:23:14;9.93;;;5.30;;
41861;SDS011;27537;57.134;-2.136;2023-09-07T01:25:41;9.85;;;5.28;;
41861;SDS011;27537;57.134;-2.136;2023-09-07T01:28:09;10.77;;;5.45;;
41861;SDS011;27537;57.134;-2.136;2023-09-07T01:30:36;12.18;;;5.85;;
41861;SDS011;27537;57.134;-2.136;2023-09-07T01:33:05;11.00;;;5.05;;
41861;SDS011;27537;57.134;-2.136;2023-09-07T01:35:32;11.05;;;6.13;;
41861;SDS011;27537;57.134;-2.136;2023-09-07T01:38:01;10.02;;;4.53;;
41861;SDS011;27537;57.134;-2.136;2023-09-07T01:40:28;9.07;;;4.65;;
41861;SDS011;27537;57.134;-2.136;2023-09-07T01:42:55;9.57;;;4.72;;
41861;SDS011;27537;57.134;-2.136;2023-09-07T01:45:22;8.68;;;4.53;;
41861;SDS011;27537;57.134;-2.136;2023-09-07T01:47:50;9.55;;;5.07;;
41861;SDS011;27537;57.134;-2.136;2023-09-07T01:50:18;10.20;;;4.45;;
41861;SDS011;27537;57.134;-2.136;2023-09-07T01:52:46;10.55;;;5.50;;
41861;SDS011;27537;57.134;-2.136;2023-09-07T01:55:15;14.45;;;5.90;;
41861;SDS011;27537;57.134;-2.136;2023-09-07T01:57:41;12.93;;;5.82;;
41861;SDS011;27537;57.134;-2.136;2023-09-07T02:00:09;12.23;;;6.00;;
41861;SDS011;27537;57.134;-2.136;2023-09-07T02:02:36;11.98;;;6.60;;
41861;SDS011;27537;57.134;-2.136;2023-09-07T02:05:03;9.88;;;5.25;;
41861;SDS011;27537;57.134;-2.136;2023-09-07T02:07:30;10.52;;;5.45;;
41861;SDS011;27537;57.134;-2.136;2023-09-07T02:09:57;11.52;;;5.47;;
41861;SDS011;27537;57.134;-2.136;2023-09-07T02:12:24;10.60;;;5.72;;
41861;SDS011;27537;57.134;-2.136;2023-09-07T02:14:50;9.38;;;5.35;;
41861;SDS011;27537;57.134;-2.136;2023-09-07T02:17:17;14.13;;;6.07;;
41861;SDS011;27537;57.134;-2.136;2023-09-07T02:19:44;12.05;;;7.07;;
41861;SDS011;27537;57.134;-2.136;2023-09-07T02:22:11;14.75;;;6.85;;
41861;SDS011;27537;57.134;-2.136;2023-09-07T02:24:38;13.25;;;6.55;;
41861;SDS011;27537;57.134;-2.136;2023-09-07T02:27:04;12.00;;;6.78;;
41861;SDS011;27537;57.134;-2.136;2023-09-07T02:29:31;15.55;;;8.25;;
41861;SDS011;27537;57.134;-2.136;2023-09-07T02:31:58;12.90;;;7.50;;
41861;SDS011;27537;57.134;-2.136;2023-09-07T02:34:24;13.18;;;7.75;;
41861;SDS011;27537;57.134;-2.136;2023-09-07T02:36:51;13.13;;;8.15;;
41861;SDS011;27537;57.134;-2.136;2023-09-07T02:39:18;11.93;;;6.55;;
41861;SDS011;27537;57.134;-2.136;2023-09-07T02:41:44;10.30;;;4.70;;
41861;SDS011;27537;57.134;-2.136;2023-09-07T02:44:12;10.93;;;5.55;;
41861;SDS011;27537;57.134;-2.136;2023-09-07T02:46:39;11.60;;;5.50;;
41861;SDS011;27537;57.134;-2.136;2023-09-07T02:49:06;12.50;;;5.50;;
41861;SDS011;27537;57.134;-2.136;2023-09-07T02:51:32;9.80;;;4.88;;
41861;SDS011;27537;57.134;-2.136;2023-09-07T02:54:01;9.60;;;5.05;;
41861;SDS011;27537;57.134;-2.136;2023-09-07T02:56:28;11.45;;;5.05;;
41861;SDS011;27537;57.134;-2.136;2023-09-07T02:58:55;9.18;;;4.75;;
41861;SDS011;27537;57.134;-2.136;2023-09-07T03:01:23;12.07;;;5.88;;
41861;SDS011;27537;57.134;-2.136;2023-09-07T03:03:49;10.75;;;5.03;;
41861;SDS011;27537;57.134;-2.136;2023-09-07T03:06:16;12.55;;;6.55;;
41861;SDS011;27537;57.134;-2.136;2023-09-07T03:08:43;9.68;;;4.85;;
41861;SDS011;27537;57.134;-2.136;2023-09-07T03:11:10;13.05;;;5.10;;
41861;SDS011;27537;57.134;-2.136;2023-09-07T03:13:37;9.38;;;4.68;;
41861;SDS011;27537;57.134;-2.136;2023-09-07T03:16:04;13.60;;;4.70;;
41861;SDS011;27537;57.134;-2.136;2023-09-07T03:18:32;10.02;;;5.15;;
41861;SDS011;27537;57.134;-2.136;2023-09-07T03:21:00;10.65;;;5.68;;
41861;SDS011;27537;57.134;-2.136;2023-09-07T03:23:29;14.25;;;7.93;;
41861;SDS011;27537;57.134;-2.136;2023-09-07T03:25:57;12.30;;;6.53;;
41861;SDS011;27537;57.134;-2.136;2023-09-07T03:28:24;9.90;;;4.90;;
41861;SDS011;27537;57.134;-2.136;2023-09-07T03:30:52;12.35;;;5.93;;
41861;SDS011;27537;57.134;-2.136;2023-09-07T03:33:20;12.27;;;6.57;;
41861;SDS011;27537;57.134;-2.136;2023-09-07T03:35:47;11.32;;;6.25;;
41861;SDS011;27537;57.134;-2.136;2023-09-07T03:38:13;11.25;;;6.22;;
41861;SDS011;27537;57.134;-2.136;2023-09-07T03:40:40;11.05;;;6.47;;
41861;SDS011;27537;57.134;-2.136;2023-09-07T03:43:07;10.43;;;5.70;;
41861;SDS011;27537;57.134;-2.136;2023-09-07T03:45:34;12.32;;;5.35;;
41861;SDS011;27537;57.134;-2.136;2023-09-07T03:48:00;14.57;;;5.93;;
41861;SDS011;27537;57.134;-2.136;2023-09-07T03:50:27;14.35;;;8.27;;
41861;SDS011;27537;57.134;-2.136;2023-09-07T03:52:54;12.95;;;7.60;;
41861;SDS011;27537;57.134;-2.136;2023-09-07T03:55:21;10.30;;;5.32;;
41861;SDS011;27537;57.134;-2.136;2023-09-07T03:57:48;10.75;;;5.43;;
41861;SDS011;27537;57.134;-2.136;2023-09-07T04:00:16;10.38;;;4.72;;
41861;SDS011;27537;57.134;-2.136;2023-09-07T04:02:44;10.30;;;5.18;;
41861;SDS011;27537;57.134;-2.136;2023-09-07T04:05:11;8.73;;;4.50;;
41861;SDS011;27537;57.134;-2.136;2023-09-07T04:07:38;10.95;;;4.88;;
41861;SDS011;27537;57.134;-2.136;2023-09-07T04:10:05;9.90;;;5.15;;
41861;SDS011;27537;57.134;-2.136;2023-09-07T04:12:32;11.02;;;4.45;;
41861;SDS011;27537;57.134;-2.136;2023-09-07T04:15:01;11.68;;;5.63;;
41861;SDS011;27537;57.134;-2.136;2023-09-07T04:17:29;10.32;;;4.43;;
41861;SDS011;27537;57.134;-2.136;2023-09-07T04:19:55;9.52;;;5.20;;
41861;SDS011;27537;57.134;-2.136;2023-09-07T04:22:22;10.25;;;4.45;;
41861;SDS011;27537;57.134;-2.136;2023-09-07T04:24:49;10.73;;;5.07;;
41861;SDS011;27537;57.134;-2.136;2023-09-07T04:27:16;14.50;;;5.60;;
41861;SDS011;27537;57.134;-2.136;2023-09-07T04:29:43;13.05;;;5.40;;
41861;SDS011;27537;57.134;-2.136;2023-09-07T04:32:09;9.48;;;4.47;;
41861;SDS011;27537;57.134;-2.136;2023-09-07T04:34:36;9.80;;;4.60;;
41861;SDS011;27537;57.134;-2.136;2023-09-07T04:37:03;9.32;;;4.65;;
41861;SDS011;27537;57.134;-2.136;2023-09-07T04:39:29;13.43;;;4.70;;
41861;SDS011;27537;57.134;-2.136;2023-09-07T04:41:56;10.25;;;4.53;;
41861;SDS011;27537;57.134;-2.136;2023-09-07T04:44:23;9.88;;;4.80;;
41861;SDS011;27537;57.134;-2.136;2023-09-07T04:46:49;9.57;;;4.95;;
41861;SDS011;27537;57.134;-2.136;2023-09-07T04:49:18;9.70;;;4.40;;
41861;SDS011;27537;57.134;-2.136;2023-09-07T04:51:44;11.23;;;4.50;;
41861;SDS011;27537;57.134;-2.136;2023-09-07T04:54:11;9.05;;;4.60;;
41861;SDS011;27537;57.134;-2.136;2023-09-07T04:56:38;10.45;;;5.10;;
41861;SDS011;27537;57.134;-2.136;2023-09-07T04:59:05;9.20;;;4.80;;
41861;SDS011;27537;57.134;-2.136;2023-09-07T05:01:32;11.77;;;4.97;;
41861;SDS011;27537;57.134;-2.136;2023-09-07T05:03:58;10.00;;;4.93;;
41861;SDS011;27537;57.134;-2.136;2023-09-07T05:06:25;10.52;;;4.90;;
41861;SDS011;27537;57.134;-2.136;2023-09-07T05:08:52;8.98;;;4.57;;
41861;SDS011;27537;57.134;-2.136;2023-09-07T05:11:19;9.63;;;4.97;;
41861;SDS011;27537;57.134;-2.136;2023-09-07T05:13:46;11.70;;;5.80;;
41861;SDS011;27537;57.134;-2.136;2023-09-07T05:16:13;12.15;;;5.70;;
41861;SDS011;27537;57.134;-2.136;2023-09-07T05:18:40;10.57;;;6.03;;
41861;SDS011;27537;57.134;-2.136;2023-09-07T05:21:11;12.32;;;6.45;;
41861;SDS011;27537;57.134;-2.136;2023-09-07T05:23:39;11.43;;;5.90;;
41861;SDS011;27537;57.134;-2.136;2023-09-07T05:26:06;12.55;;;5.25;;
41861;SDS011;27537;57.134;-2.136;2023-09-07T05:28:33;10.70;;;5.70;;
41861;SDS011;27537;57.134;-2.136;2023-09-07T05:31:00;11.55;;;5.90;;
41861;SDS011;27537;57.134;-2.136;2023-09-07T05:33:27;11.18;;;5.50;;
41861;SDS011;27537;57.134;-2.136;2023-09-07T05:35:53;9.10;;;4.43;;
41861;SDS011;27537;57.134;-2.136;2023-09-07T05:38:20;11.80;;;5.57;;
41861;SDS011;27537;57.134;-2.136;2023-09-07T05:40:47;10.52;;;5.57;;
41861;SDS011;27537;57.134;-2.136;2023-09-07T05:43:16;10.10;;;5.35;;
41861;SDS011;27537;57.134;-2.136;2023-09-07T05:45:43;9.77;;;4.82;;
41861;SDS011;27537;57.134;-2.136;2023-09-07T05:48:10;8.88;;;4.20;;
41861;SDS011;27537;57.134;-2.136;2023-09-07T05:50:37;9.43;;;4.82;;
41861;SDS011;27537;57.134;-2.136;2023-09-07T05:53:04;9.07;;;4.25;;
41861;SDS011;27537;57.134;-2.136;2023-09-07T05:55:32;9.38;;;4.88;;
41861;SDS011;27537;57.134;-2.136;2023-09-07T05:57:59;9.15;;;4.18;;
41861;SDS011;27537;57.134;-2.136;2023-09-07T06:00:31;12.70;;;5.88;;
41861;SDS011;27537;57.134;-2.136;2023-09-07T06:02:58;10.25;;;5.10;;
41861;SDS011;27537;57.134;-2.136;2023-09-07T06:05:25;10.77;;;5.45;;
41861;SDS011;27537;57.134;-2.136;2023-09-07T06:07:52;11.20;;;4.57;;
41861;SDS011;27537;57.134;-2.136;2023-09-07T06:10:18;10.88;;;4.65;;
41861;SDS011;27537;57.134;-2.136;2023-09-07T06:12:45;10.02;;;5.30;;
41861;SDS011;27537;57.134;-2.136;2023-09-07T06:15:12;11.50;;;5.47;;
41861;SDS011;27537;57.134;-2.136;2023-09-07T06:17:38;12.27;;;5.85;;
41861;SDS011;27537;57.134;-2.136;2023-09-07T06:20:05;11.82;;;6.20;;
41861;SDS011;27537;57.134;-2.136;2023-09-07T06:22:33;10.90;;;5.22;;
41861;SDS011;27537;57.134;-2.136;2023-09-07T06:24:59;11.55;;;5.90;;
41861;SDS011;27537;57.134;-2.136;2023-09-07T06:27:26;12.77;;;5.93;;
41861;SDS011;27537;57.134;-2.136;2023-09-07T06:29:53;10.60;;;5.63;;
41861;SDS011;27537;57.134;-2.136;2023-09-07T06:32:19;10.32;;;5.55;;
41861;SDS011;27537;57.134;-2.136;2023-09-07T06:34:46;12.00;;;5.38;;
41861;SDS011;27537;57.134;-2.136;2023-09-07T06:37:13;10.77;;;5.53;;
41861;SDS011;27537;57.134;-2.136;2023-09-07T06:39:40;10.43;;;5.65;;
41861;SDS011;27537;57.134;-2.136;2023-09-07T06:42:09;12.20;;;6.18;;
41861;SDS011;27537;57.134;-2.136;2023-09-07T06:44:39;11.38;;;6.13;;
41861;SDS011;27537;57.134;-2.136;2023-09-07T06:47:05;12.38;;;6.72;;
41861;SDS011;27537;57.134;-2.136;2023-09-07T06:49:32;12.50;;;6.40;;
41861;SDS011;27537;57.134;-2.136;2023-09-07T06:51:59;11.40;;;5.28;;
41861;SDS011;27537;57.134;-2.136;2023-09-07T06:54:28;12.75;;;6.45;;
41861;SDS011;27537;57.134;-2.136;2023-09-07T06:56:55;9.73;;;4.95;;
41861;SDS011;27537;57.134;-2.136;2023-09-07T06:59:22;11.32;;;6.13;;
41861;SDS011;27537;57.134;-2.136;2023-09-07T07:01:48;13.35;;;6.03;;
41861;SDS011;27537;57.134;-2.136;2023-09-07T07:04:15;10.25;;;5.15;;
41861;SDS011;27537;57.134;-2.136;2023-09-07T07:06:42;10.05;;;5.35;;
41861;SDS011;27537;57.134;-2.136;2023-09-07T07:09:09;10.35;;;5.30;;
41861;SDS011;27537;57.134;-2.136;2023-09-07T07:11:37;17.45;;;4.78;;
41861;SDS011;27537;57.134;-2.136;2023-09-07T07:14:05;10.45;;;5.32;;
41861;SDS011;27537;57.134;-2.136;2023-09-07T07:16:32;11.32;;;5.28;;
41861;SDS011;27537;57.134;-2.136;2023-09-07T07:18:58;10.90;;;5.82;;
41861;SDS011;27537;57.134;-2.136;2023-09-07T07:21:25;9.88;;;5.28;;
41861;SDS011;27537;57.134;-2.136;2023-09-07T07:23:52;9.85;;;5.13;;
41861;SDS011;27537;57.134;-2.136;2023-09-07T07:26:20;8.80;;;4.55;;
41861;SDS011;27537;57.134;-2.136;2023-09-07T07:28:47;11.13;;;6.55;;
41861;SDS011;27537;57.134;-2.136;2023-09-07T07:31:14;12.98;;;7.25;;
41861;SDS011;27537;57.134;-2.136;2023-09-07T07:33:40;11.48;;;5.90;;
41861;SDS011;27537;57.134;-2.136;2023-09-07T07:36:07;9.52;;;4.28;;
41861;SDS011;27537;57.134;-2.136;2023-09-07T07:38:35;10.05;;;4.53;;
41861;SDS011;27537;57.134;-2.136;2023-09-07T07:41:02;11.13;;;4.90;;
41861;SDS011;27537;57.134;-2.136;2023-09-07T07:43:28;9.95;;;4.72;;
41861;SDS011;27537;57.134;-2.136;2023-09-07T07:45:56;8.93;;;4.50;;
41861;SDS011;27537;57.134;-2.136;2023-09-07T07:48:23;10.35;;;4.30;;
41861;SDS011;27537;57.134;-2.136;2023-09-07T07:50:49;9.48;;;4.72;;
41861;SDS011;27537;57.134;-2.136;2023-09-07T07:53:16;10.45;;;5.05;;
41861;SDS011;27537;57.134;-2.136;2023-09-07T07:55:44;12.70;;;5.35;;
41861;SDS011;27537;57.134;-2.136;2023-09-07T07:58:10;9.30;;;4.78;;
41861;SDS011;27537;57.134;-2.136;2023-09-07T08:00:38;12.43;;;5.30;;
41861;SDS011;27537;57.134;-2.136;2023-09-07T08:03:07;11.05;;;5.60;;
41861;SDS011;27537;57.134;-2.136;2023-09-07T08:05:34;11.00;;;6.18;;
41861;SDS011;27537;57.134;-2.136;2023-09-07T08:08:01;10.75;;;5.80;;
41861;SDS011;27537;57.134;-2.136;2023-09-07T08:10:28;10.45;;;5.72;;
41861;SDS011;27537;57.134;-2.136;2023-09-07T08:12:57;10.57;;;5.20;;
41861;SDS011;27537;57.134;-2.136;2023-09-07T08:15:24;11.93;;;6.30;;
41861;SDS011;27537;57.134;-2.136;2023-09-07T08:17:52;13.38;;;6.57;;
41861;SDS011;27537;57.134;-2.136;2023-09-07T08:20:19;13.43;;;6.45;;
41861;SDS011;27537;57.134;-2.136;2023-09-07T08:22:46;10.45;;;5.60;;
41861;SDS011;27537;57.134;-2.136;2023-09-07T08:25:13;9.52;;;4.88;;
41861;SDS011;27537;57.134;-2.136;2023-09-07T08:27:40;13.05;;;5.10;;
41861;SDS011;27537;57.134;-2.136;2023-09-07T08:30:13;11.02;;;5.25;;
41861;SDS011;27537;57.134;-2.136;2023-09-07T08:32:44;12.27;;;5.40;;
41861;SDS011;27537;57.134;-2.136;2023-09-07T08:35:12;10.35;;;5.25;;
41861;SDS011;27537;57.134;-2.136;2023-09-07T08:37:40;9.77;;;4.85;;
41861;SDS011;27537;57.134;-2.136;2023-09-07T08:40:07;12.70;;;5.55;;
41861;SDS011;27537;57.134;-2.136;2023-09-07T08:42:35;12.95;;;5.43;;
41861;SDS011;27537;57.134;-2.136;2023-09-07T08:45:03;11.60;;;4.63;;
41861;SDS011;27537;57.134;-2.136;2023-09-07T08:47:36;11.43;;;5.40;;
41861;SDS011;27537;57.134;-2.136;2023-09-07T08:50:04;12.40;;;5.80;;
41861;SDS011;27537;57.134;-2.136;2023-09-07T08:52:35;9.77;;;5.30;;
41861;SDS011;27537;57.134;-2.136;2023-09-07T08:55:02;10.75;;;4.28;;
41861;SDS011;27537;57.134;-2.136;2023-09-07T08:57:31;9.45;;;4.85;;
41861;SDS011;27537;57.134;-2.136;2023-09-07T08:59:58;12.98;;;5.10;;
41861;SDS011;27537;57.134;-2.136;2023-09-07T09:02:25;11.82;;;5.03;;
41861;SDS011;27537;57.134;-2.136;2023-09-07T09:04:52;9.50;;;4.20;;
41861;SDS011;27537;57.134;-2.136;2023-09-07T09:07:20;14.52;;;5.30;;
41861;SDS011;27537;57.134;-2.136;2023-09-07T09:09:48;11.40;;;5.32;;
41861;SDS011;27537;57.134;-2.136;2023-09-07T09:12:16;10.55;;;5.95;;
41861;SDS011;27537;57.134;-2.136;2023-09-07T09:14:44;10.88;;;5.72;;
41861;SDS011;27537;57.134;-2.136;2023-09-07T09:17:12;8.63;;;4.68;;
41861;SDS011;27537;57.134;-2.136;2023-09-07T09:19:40;14.68;;;7.63;;
41861;SDS011;27537;57.134;-2.136;2023-09-07T09:22:11;11.15;;;5.38;;
41861;SDS011;27537;57.134;-2.136;2023-09-07T09:24:38;11.63;;;5.80;;
41861;SDS011;27537;57.134;-2.136;2023-09-07T09:27:04;12.15;;;5.05;;
41861;SDS011;27537;57.134;-2.136;2023-09-07T09:29:35;12.23;;;5.05;;
41861;SDS011;27537;57.134;-2.136;2023-09-07T09:32:06;10.27;;;4.60;;
41861;SDS011;27537;57.134;-2.136;2023-09-07T09:34:33;10.23;;;5.35;;
41861;SDS011;27537;57.134;-2.136;2023-09-07T09:37:02;11.77;;;4.80;;
41861;SDS011;27537;57.134;-2.136;2023-09-07T09:39:32;10.55;;;5.07;;
41861;SDS011;27537;57.134;-2.136;2023-09-07T09:42:00;9.38;;;5.03;;
41861;SDS011;27537;57.134;-2.136;2023-09-07T09:44:29;10.70;;;5.00;;
41861;SDS011;27537;57.134;-2.136;2023-09-07T09:46:56;15.77;;;7.35;;
41861;SDS011;27537;57.134;-2.136;2023-09-07T09:49:23;12.45;;;5.68;;
41861;SDS011;27537;57.134;-2.136;2023-09-07T09:51:52;10.20;;;4.78;;
41861;SDS011;27537;57.134;-2.136;2023-09-07T09:54:20;13.20;;;6.32;;
41861;SDS011;27537;57.134;-2.136;2023-09-07T09:56:48;10.70;;;5.20;;
41861;SDS011;27537;57.134;-2.136;2023-09-07T09:59:15;9.75;;;5.30;;
41861;SDS011;27537;57.134;-2.136;2023-09-07T10:01:46;10.05;;;5.25;;
41861;SDS011;27537;57.134;-2.136;2023-09-07T10:04:15;10.43;;;4.97;;
41861;SDS011;27537;57.134;-2.136;2023-09-07T10:06:50;13.45;;;4.28;;
41861;SDS011;27537;57.134;-2.136;2023-09-07T10:09:21;9.63;;;4.13;;
41861;SDS011;27537;57.134;-2.136;2023-09-07T10:11:54;16.35;;;5.47;;
41861;SDS011;27537;57.134;-2.136;2023-09-07T10:14:20;10.88;;;5.00;;
41861;SDS011;27537;57.134;-2.136;2023-09-07T10:16:48;11.00;;;4.82;;
41861;SDS011;27537;57.134;-2.136;2023-09-07T10:19:20;10.95;;;5.00;;
41861;SDS011;27537;57.134;-2.136;2023-09-07T10:21:48;10.82;;;4.25;;
41861;SDS011;27537;57.134;-2.136;2023-09-07T10:26:59;10.05;;;4.30;;
41861;SDS011;27537;57.134;-2.136;2023-09-07T10:29:28;10.30;;;4.78;;
41861;SDS011;27537;57.134;-2.136;2023-09-07T10:31:55;13.60;;;4.63;;
41861;SDS011;27537;57.134;-2.136;2023-09-07T10:34:33;10.45;;;3.95;;
41861;SDS011;27537;57.134;-2.136;2023-09-07T10:37:01;9.98;;;4.05;;
41861;SDS011;27537;57.134;-2.136;2023-09-07T10:39:31;12.15;;;4.55;;
41861;SDS011;27537;57.134;-2.136;2023-09-07T10:41:58;10.55;;;4.05;;
41861;SDS011;27537;57.134;-2.136;2023-09-07T10:44:25;10.27;;;3.65;;
41861;SDS011;27537;57.134;-2.136;2023-09-07T10:46:53;9.25;;;3.42;;
41861;SDS011;27537;57.134;-2.136;2023-09-07T10:49:20;12.90;;;3.40;;
41861;SDS011;27537;57.134;-2.136;2023-09-07T10:51:47;11.02;;;3.70;;
41861;SDS011;27537;57.134;-2.136;2023-09-07T10:54:18;11.73;;;4.70;;
41861;SDS011;27537;57.134;-2.136;2023-09-07T10:56:48;13.40;;;4.15;;
41861;SDS011;27537;57.134;-2.136;2023-09-07T10:59:16;10.45;;;4.30;;
41861;SDS011;27537;57.134;-2.136;2023-09-07T11:01:44;11.48;;;4.45;;
41861;SDS011;27537;57.134;-2.136;2023-09-07T11:04:12;11.35;;;4.30;;
41861;SDS011;27537;57.134;-2.136;2023-09-07T11:06:39;9.68;;;4.15;;
41861;SDS011;27537;57.134;-2.136;2023-09-07T11:09:08;11.55;;;5.25;;
41861;SDS011;27537;57.134;-2.136;2023-09-07T11:11:37;10.68;;;4.65;;
41861;SDS011;27537;57.134;-2.136;2023-09-07T11:14:05;12.32;;;4.38;;
41861;SDS011;27537;57.134;-2.136;2023-09-07T11:16:32;13.13;;;4.20;;
41861;SDS011;27537;57.134;-2.136;2023-09-07T11:19:03;12.13;;;4.13;;
41861;SDS011;27537;57.134;-2.136;2023-09-07T11:21:31;10.85;;;4.45;;
41861;SDS011;27537;57.134;-2.136;2023-09-07T11:24:02;11.82;;;4.60;;
41861;SDS011;27537;57.134;-2.136;2023-09-07T11:26:45;10.30;;;4.03;;
41861;SDS011;27537;57.134;-2.136;2023-09-07T11:29:13;13.40;;;4.15;;
41861;SDS011;27537;57.134;-2.136;2023-09-07T11:31:42;11.98;;;4.85;;
41861;SDS011;27537;57.134;-2.136;2023-09-07T11:34:12;13.57;;;4.82;;
41861;SDS011;27537;57.134;-2.136;2023-09-07T11:36:43;15.32;;;6.32;;
41861;SDS011;27537;57.134;-2.136;2023-09-07T11:39:10;14.52;;;6.38;;
41861;SDS011;27537;57.134;-2.136;2023-09-07T11:41:40;18.27;;;7.75;;
41861;SDS011;27537;57.134;-2.136;2023-09-07T11:44:09;18.17;;;8.48;;
41861;SDS011;27537;57.134;-2.136;2023-09-07T11:46:36;11.60;;;5.63;;
41861;SDS011;27537;57.134;-2.136;2023-09-07T11:49:04;12.88;;;6.10;;
41861;SDS011;27537;57.134;-2.136;2023-09-07T11:51:36;12.80;;;6.13;;
41861;SDS011;27537;57.134;-2.136;2023-09-07T11:54:03;11.95;;;5.78;;
41861;SDS011;27537;57.134;-2.136;2023-09-07T11:56:31;12.35;;;5.00;;
41861;SDS011;27537;57.134;-2.136;2023-09-07T11:58:58;12.77;;;5.03;;
41861;SDS011;27537;57.134;-2.136;2023-09-07T12:01:24;13.32;;;5.88;;
41861;SDS011;27537;57.134;-2.136;2023-09-07T12:03:52;10.90;;;4.60;;
41861;SDS011;27537;57.134;-2.136;2023-09-07T12:06:19;12.43;;;5.05;;
41861;SDS011;27537;57.134;-2.136;2023-09-07T12:08:59;13.63;;;5.68;;
41861;SDS011;27537;57.134;-2.136;2023-09-07T12:11:26;16.13;;;7.15;;
41861;SDS011;27537;57.134;-2.136;2023-09-07T12:13:53;11.55;;;5.47;;
41861;SDS011;27537;57.134;-2.136;2023-09-07T12:16:20;13.70;;;5.10;;
41861;SDS011;27537;57.134;-2.136;2023-09-07T12:18:46;11.02;;;5.00;;
41861;SDS011;27537;57.134;-2.136;2023-09-07T12:21:13;10.45;;;5.10;;
41861;SDS011;27537;57.134;-2.136;2023-09-07T12:23:40;14.27;;;5.82;;
41861;SDS011;27537;57.134;-2.136;2023-09-07T12:26:06;10.88;;;4.32;;
41861;SDS011;27537;57.134;-2.136;2023-09-07T12:28:35;10.52;;;4.47;;
41861;SDS011;27537;57.134;-2.136;2023-09-07T12:31:02;10.00;;;3.92;;
41861;SDS011;27537;57.134;-2.136;2023-09-07T12:33:29;16.90;;;4.20;;
41861;SDS011;27537;57.134;-2.136;2023-09-07T12:35:57;11.70;;;4.07;;
41861;SDS011;27537;57.134;-2.136;2023-09-07T12:38:24;9.52;;;3.55;;
41861;SDS011;27537;57.134;-2.136;2023-09-07T12:40:55;11.10;;;3.33;;
41861;SDS011;27537;57.134;-2.136;2023-09-07T12:43:22;12.15;;;4.25;;
41861;SDS011;27537;57.134;-2.136;2023-09-07T12:45:51;10.95;;;3.40;;
41861;SDS011;27537;57.134;-2.136;2023-09-07T12:48:19;10.77;;;4.22;;
41861;SDS011;27537;57.134;-2.136;2023-09-07T12:50:46;11.50;;;3.28;;
41861;SDS011;27537;57.134;-2.136;2023-09-07T12:53:12;10.95;;;3.65;;
41861;SDS011;27537;57.134;-2.136;2023-09-07T12:55:39;9.23;;;2.97;;
41861;SDS011;27537;57.134;-2.136;2023-09-07T12:58:06;15.85;;;4.03;;
41861;SDS011;27537;57.134;-2.136;2023-09-07T13:00:33;10.18;;;3.22;;
41861;SDS011;27537;57.134;-2.136;2023-09-07T13:02:59;10.75;;;3.10;;
41861;SDS011;27537;57.134;-2.136;2023-09-07T13:05:26;8.75;;;2.70;;
41861;SDS011;27537;57.134;-2.136;2023-09-07T13:07:53;10.43;;;3.00;;
41861;SDS011;27537;57.134;-2.136;2023-09-07T13:10:20;10.70;;;3.53;;
41861;SDS011;27537;57.134;-2.136;2023-09-07T13:12:47;10.70;;;2.90;;
41861;SDS011;27537;57.134;-2.136;2023-09-07T13:15:14;8.77;;;2.58;;
41861;SDS011;27537;57.134;-2.136;2023-09-07T13:17:40;12.48;;;3.67;;
41861;SDS011;27537;57.134;-2.136;2023-09-07T13:20:08;13.18;;;3.38;;
41861;SDS011;27537;57.134;-2.136;2023-09-07T13:22:36;19.23;;;4.38;;
41861;SDS011;27537;57.134;-2.136;2023-09-07T13:25:02;12.20;;;4.30;;
41861;SDS011;27537;57.134;-2.136;2023-09-07T13:27:31;15.45;;;5.25;;
41861;SDS011;27537;57.134;-2.136;2023-09-07T13:29:57;13.43;;;5.55;;
41861;SDS011;27537;57.134;-2.136;2023-09-07T13:32:24;14.07;;;5.97;;
41861;SDS011;27537;57.134;-2.136;2023-09-07T13:34:51;11.90;;;4.53;;
41861;SDS011;27537;57.134;-2.136;2023-09-07T13:37:18;10.63;;;4.68;;
41861;SDS011;27537;57.134;-2.136;2023-09-07T13:39:44;9.60;;;3.50;;
41861;SDS011;27537;57.134;-2.136;2023-09-07T13:42:11;11.38;;;5.05;;
41861;SDS011;27537;57.134;-2.136;2023-09-07T13:44:38;12.55;;;4.18;;
41861;SDS011;27537;57.134;-2.136;2023-09-07T13:47:04;12.07;;;4.22;;
41861;SDS011;27537;57.134;-2.136;2023-09-07T13:49:31;8.85;;;3.28;;
41861;SDS011;27537;57.134;-2.136;2023-09-07T13:51:58;10.18;;;3.63;;
41861;SDS011;27537;57.134;-2.136;2023-09-07T13:54:24;13.73;;;6.00;;
41861;SDS011;27537;57.134;-2.136;2023-09-07T13:56:51;19.05;;;6.97;;
41861;SDS011;27537;57.134;-2.136;2023-09-07T13:59:18;11.25;;;5.22;;
41861;SDS011;27537;57.134;-2.136;2023-09-07T14:01:44;8.20;;;3.60;;
41861;SDS011;27537;57.134;-2.136;2023-09-07T14:04:11;13.18;;;7.38;;
41861;SDS011;27537;57.134;-2.136;2023-09-07T14:06:37;9.43;;;4.10;;
41861;SDS011;27537;57.134;-2.136;2023-09-07T14:09:04;7.93;;;3.63;;
41861;SDS011;27537;57.134;-2.136;2023-09-07T14:11:33;10.57;;;4.07;;
41861;SDS011;27537;57.134;-2.136;2023-09-07T14:13:59;12.02;;;4.82;;
41861;SDS011;27537;57.134;-2.136;2023-09-07T14:16:26;9.77;;;3.63;;
41861;SDS011;27537;57.134;-2.136;2023-09-07T14:18:53;10.18;;;4.45;;
41861;SDS011;27537;57.134;-2.136;2023-09-07T14:21:21;9.68;;;4.05;;
41861;SDS011;27537;57.134;-2.136;2023-09-07T14:23:47;9.02;;;3.63;;
41861;SDS011;27537;57.134;-2.136;2023-09-07T14:26:14;10.85;;;4.57;;
41861;SDS011;27537;57.134;-2.136;2023-09-07T14:28:41;11.30;;;4.43;;